sensor_id;sensor_type;location;lat;lon;timestamp;P1;durP1;ratioP1;P2;durP2;ratioP2
26756;SDS011;23848;49.798;10.228;2022-10-31T00:01:01;8.52;;;7.15;;
26756;SDS011;23848;49.798;10.228;2022-10-31T00:03:30;9.20;;;8.07;;
26756;SDS011;23848;49.798;10.228;2022-10-31T00:05:58;8.45;;;7.43;;
26756;SDS011;23848;49.798;10.228;2022-10-31T00:08:28;9.35;;;7.95;;
26756;SDS011;23848;49.798;10.228;2022-10-31T00:10:56;9.75;;;8.20;;
26756;SDS011;23848;49.798;10.228;2022-10-31T00:13:27;9.50;;;8.40;;
26756;SDS011;23848;49.798;10.228;2022-10-31T00:15:57;9.02;;;8.05;;
26756;SDS011;23848;49.798;10.228;2022-10-31T00:18:25;9.98;;;8.02;;
26756;SDS011;23848;49.798;10.228;2022-10-31T00:20:58;8.77;;;7.88;;
26756;SDS011;23848;49.798;10.228;2022-10-31T00:23:26;9.90;;;8.25;;
26756;SDS011;23848;49.798;10.228;2022-10-31T00:25:59;9.13;;;7.55;;
26756;SDS011;23848;49.798;10.228;2022-10-31T00:28:28;8.85;;;7.75;;
26756;SDS011;23848;49.798;10.228;2022-10-31T00:30:59;8.68;;;7.78;;
26756;SDS011;23848;49.798;10.228;2022-10-31T00:33:28;9.07;;;8.15;;
26756;SDS011;23848;49.798;10.228;2022-10-31T00:35:56;9.23;;;8.20;;
26756;SDS011;23848;49.798;10.228;2022-10-31T00:38:25;9.15;;;8.15;;
26756;SDS011;23848;49.798;10.228;2022-10-31T00:40:53;9.52;;;8.52;;
26756;SDS011;23848;49.798;10.228;2022-10-31T00:43:22;10.15;;;8.45;;
26756;SDS011;23848;49.798;10.228;2022-10-31T00:45:50;11.32;;;9.23;;
26756;SDS011;23848;49.798;10.228;2022-10-31T00:48:20;14.95;;;10.45;;
26756;SDS011;23848;49.798;10.228;2022-10-31T00:50:48;14.00;;;10.70;;
26756;SDS011;23848;49.798;10.228;2022-10-31T00:53:17;13.32;;;10.43;;
26756;SDS011;23848;49.798;10.228;2022-10-31T00:55:45;14.98;;;11.38;;
26756;SDS011;23848;49.798;10.228;2022-10-31T00:58:13;18.45;;;12.50;;
26756;SDS011;23848;49.798;10.228;2022-10-31T01:00:42;18.20;;;12.77;;
26756;SDS011;23848;49.798;10.228;2022-10-31T01:03:16;20.10;;;13.60;;
26756;SDS011;23848;49.798;10.228;2022-10-31T01:05:54;21.30;;;14.57;;
26756;SDS011;23848;49.798;10.228;2022-10-31T01:08:22;20.25;;;12.85;;
26756;SDS011;23848;49.798;10.228;2022-10-31T01:10:58;19.23;;;12.35;;
26756;SDS011;23848;49.798;10.228;2022-10-31T01:13:27;18.95;;;12.57;;
26756;SDS011;23848;49.798;10.228;2022-10-31T01:15:55;16.42;;;11.43;;
26756;SDS011;23848;49.798;10.228;2022-10-31T01:18:24;10.82;;;9.32;;
26756;SDS011;23848;49.798;10.228;2022-10-31T01:21:00;13.25;;;9.80;;
26756;SDS011;23848;49.798;10.228;2022-10-31T01:23:29;12.52;;;10.57;;
26756;SDS011;23848;49.798;10.228;2022-10-31T01:25:59;12.65;;;10.80;;
26756;SDS011;23848;49.798;10.228;2022-10-31T01:28:27;9.90;;;8.70;;
26756;SDS011;23848;49.798;10.228;2022-10-31T01:30:59;12.55;;;8.95;;
26756;SDS011;23848;49.798;10.228;2022-10-31T01:33:28;10.93;;;8.23;;
26756;SDS011;23848;49.798;10.228;2022-10-31T01:35:56;10.20;;;7.85;;
26756;SDS011;23848;49.798;10.228;2022-10-31T01:38:26;9.85;;;8.32;;
26756;SDS011;23848;49.798;10.228;2022-10-31T01:40:55;10.77;;;7.88;;
26756;SDS011;23848;49.798;10.228;2022-10-31T01:43:23;11.02;;;8.25;;
26756;SDS011;23848;49.798;10.228;2022-10-31T01:45:52;13.10;;;9.07;;
26756;SDS011;23848;49.798;10.228;2022-10-31T01:48:23;9.40;;;8.18;;
26756;SDS011;23848;49.798;10.228;2022-10-31T01:50:53;10.23;;;8.73;;
26756;SDS011;23848;49.798;10.228;2022-10-31T01:53:22;13.35;;;8.90;;
26756;SDS011;23848;49.798;10.228;2022-10-31T01:55:53;12.95;;;9.02;;
26756;SDS011;23848;49.798;10.228;2022-10-31T01:58:22;15.32;;;9.65;;
26756;SDS011;23848;49.798;10.228;2022-10-31T02:00:54;14.32;;;9.27;;
26756;SDS011;23848;49.798;10.228;2022-10-31T02:03:28;15.85;;;9.60;;
26756;SDS011;23848;49.798;10.228;2022-10-31T02:05:57;11.70;;;8.98;;
26756;SDS011;23848;49.798;10.228;2022-10-31T02:08:26;13.00;;;9.07;;
26756;SDS011;23848;49.798;10.228;2022-10-31T02:10:57;12.50;;;8.98;;
26756;SDS011;23848;49.798;10.228;2022-10-31T02:13:26;14.70;;;8.30;;
26756;SDS011;23848;49.798;10.228;2022-10-31T02:15:56;10.95;;;8.75;;
26756;SDS011;23848;49.798;10.228;2022-10-31T02:18:25;13.70;;;9.38;;
26756;SDS011;23848;49.798;10.228;2022-10-31T02:21:00;11.07;;;9.23;;
26756;SDS011;23848;49.798;10.228;2022-10-31T02:26:31;11.05;;;8.45;;
26756;SDS011;23848;49.798;10.228;2022-10-31T02:31:51;10.40;;;8.43;;
26756;SDS011;23848;49.798;10.228;2022-10-31T02:34:22;11.35;;;8.80;;
26756;SDS011;23848;49.798;10.228;2022-10-31T02:36:52;14.90;;;8.63;;
26756;SDS011;23848;49.798;10.228;2022-10-31T02:39:22;11.40;;;8.63;;
26756;SDS011;23848;49.798;10.228;2022-10-31T02:41:52;9.95;;;8.35;;
26756;SDS011;23848;49.798;10.228;2022-10-31T02:44:25;10.88;;;8.60;;
26756;SDS011;23848;49.798;10.228;2022-10-31T02:46:59;12.55;;;7.97;;
26756;SDS011;23848;49.798;10.228;2022-10-31T02:49:29;11.40;;;8.48;;
26756;SDS011;23848;49.798;10.228;2022-10-31T02:52:00;11.65;;;9.00;;
26756;SDS011;23848;49.798;10.228;2022-10-31T02:54:29;10.18;;;8.40;;
26756;SDS011;23848;49.798;10.228;2022-10-31T02:57:02;9.18;;;7.65;;
26756;SDS011;23848;49.798;10.228;2022-10-31T02:59:31;9.90;;;8.20;;
26756;SDS011;23848;49.798;10.228;2022-10-31T03:02:07;10.60;;;8.77;;
26756;SDS011;23848;49.798;10.228;2022-10-31T03:04:40;12.90;;;9.02;;
26756;SDS011;23848;49.798;10.228;2022-10-31T03:07:15;10.68;;;8.80;;
26756;SDS011;23848;49.798;10.228;2022-10-31T03:09:46;11.90;;;8.98;;
26756;SDS011;23848;49.798;10.228;2022-10-31T03:12:23;11.40;;;8.95;;
26756;SDS011;23848;49.798;10.228;2022-10-31T03:14:56;10.52;;;9.27;;
26756;SDS011;23848;49.798;10.228;2022-10-31T03:17:31;10.52;;;8.35;;
26756;SDS011;23848;49.798;10.228;2022-10-31T03:20:02;11.07;;;8.70;;
26756;SDS011;23848;49.798;10.228;2022-10-31T03:22:32;11.27;;;8.20;;
26756;SDS011;23848;49.798;10.228;2022-10-31T03:25:01;11.43;;;9.00;;
26756;SDS011;23848;49.798;10.228;2022-10-31T03:27:31;11.77;;;8.90;;
26756;SDS011;23848;49.798;10.228;2022-10-31T03:30:01;10.50;;;8.95;;
26756;SDS011;23848;49.798;10.228;2022-10-31T03:32:31;10.43;;;8.23;;
26756;SDS011;23848;49.798;10.228;2022-10-31T03:35:01;9.55;;;8.55;;
26756;SDS011;23848;49.798;10.228;2022-10-31T03:37:32;14.45;;;9.30;;
26756;SDS011;23848;49.798;10.228;2022-10-31T03:40:01;10.35;;;8.65;;
26756;SDS011;23848;49.798;10.228;2022-10-31T03:42:32;10.05;;;7.82;;
26756;SDS011;23848;49.798;10.228;2022-10-31T03:45:03;9.15;;;7.93;;
26756;SDS011;23848;49.798;10.228;2022-10-31T03:47:34;9.13;;;8.00;;
26756;SDS011;23848;49.798;10.228;2022-10-31T03:50:03;8.80;;;7.90;;
26756;SDS011;23848;49.798;10.228;2022-10-31T03:52:33;10.82;;;8.77;;
26756;SDS011;23848;49.798;10.228;2022-10-31T03:55:05;10.27;;;8.68;;
26756;SDS011;23848;49.798;10.228;2022-10-31T03:57:35;11.52;;;9.15;;
26756;SDS011;23848;49.798;10.228;2022-10-31T04:00:05;12.40;;;9.02;;
26756;SDS011;23848;49.798;10.228;2022-10-31T04:02:37;12.48;;;9.35;;
26756;SDS011;23848;49.798;10.228;2022-10-31T04:05:07;13.55;;;9.43;;
26756;SDS011;23848;49.798;10.228;2022-10-31T04:07:36;10.73;;;8.20;;
26756;SDS011;23848;49.798;10.228;2022-10-31T04:10:06;13.70;;;8.70;;
26756;SDS011;23848;49.798;10.228;2022-10-31T04:12:36;10.90;;;8.18;;
26756;SDS011;23848;49.798;10.228;2022-10-31T04:15:06;14.93;;;8.82;;
26756;SDS011;23848;49.798;10.228;2022-10-31T04:17:38;14.02;;;8.30;;
26756;SDS011;23848;49.798;10.228;2022-10-31T04:20:07;10.50;;;8.75;;
26756;SDS011;23848;49.798;10.228;2022-10-31T04:22:35;10.07;;;7.95;;
26756;SDS011;23848;49.798;10.228;2022-10-31T04:25:04;11.13;;;8.50;;
26756;SDS011;23848;49.798;10.228;2022-10-31T04:27:33;10.10;;;8.45;;
26756;SDS011;23848;49.798;10.228;2022-10-31T04:30:02;8.73;;;7.80;;
26756;SDS011;23848;49.798;10.228;2022-10-31T04:32:30;12.38;;;8.50;;
26756;SDS011;23848;49.798;10.228;2022-10-31T04:35:00;12.85;;;8.20;;
26756;SDS011;23848;49.798;10.228;2022-10-31T04:37:28;10.70;;;7.97;;
26756;SDS011;23848;49.798;10.228;2022-10-31T04:39:57;10.90;;;8.38;;
26756;SDS011;23848;49.798;10.228;2022-10-31T04:42:26;11.80;;;8.40;;
26756;SDS011;23848;49.798;10.228;2022-10-31T04:44:56;13.77;;;8.70;;
26756;SDS011;23848;49.798;10.228;2022-10-31T04:47:25;10.50;;;7.85;;
26756;SDS011;23848;49.798;10.228;2022-10-31T04:49:53;11.52;;;8.13;;
26756;SDS011;23848;49.798;10.228;2022-10-31T04:52:23;10.27;;;8.43;;
26756;SDS011;23848;49.798;10.228;2022-10-31T04:54:51;10.57;;;7.72;;
26756;SDS011;23848;49.798;10.228;2022-10-31T04:57:20;9.93;;;7.88;;
26756;SDS011;23848;49.798;10.228;2022-10-31T04:59:48;9.32;;;7.32;;
26756;SDS011;23848;49.798;10.228;2022-10-31T05:02:16;9.02;;;7.10;;
26756;SDS011;23848;49.798;10.228;2022-10-31T05:04:45;8.13;;;6.95;;
26756;SDS011;23848;49.798;10.228;2022-10-31T05:07:13;8.00;;;7.20;;
26756;SDS011;23848;49.798;10.228;2022-10-31T05:09:43;9.10;;;7.57;;
26756;SDS011;23848;49.798;10.228;2022-10-31T05:12:11;7.93;;;7.13;;
26756;SDS011;23848;49.798;10.228;2022-10-31T05:14:40;8.70;;;6.57;;
26756;SDS011;23848;49.798;10.228;2022-10-31T05:19:41;8.48;;;6.93;;
26756;SDS011;23848;49.798;10.228;2022-10-31T05:22:10;9.23;;;7.75;;
26756;SDS011;23848;49.798;10.228;2022-10-31T05:24:38;8.68;;;6.95;;
26756;SDS011;23848;49.798;10.228;2022-10-31T05:27:08;8.60;;;7.55;;
26756;SDS011;23848;49.798;10.228;2022-10-31T05:29:37;9.65;;;7.45;;
26756;SDS011;23848;49.798;10.228;2022-10-31T05:32:05;8.07;;;7.07;;
26756;SDS011;23848;49.798;10.228;2022-10-31T05:34:34;8.68;;;7.13;;
26756;SDS011;23848;49.798;10.228;2022-10-31T05:37:02;8.05;;;7.25;;
26756;SDS011;23848;49.798;10.228;2022-10-31T05:39:30;8.43;;;7.43;;
26756;SDS011;23848;49.798;10.228;2022-10-31T05:41:59;8.65;;;7.75;;
26756;SDS011;23848;49.798;10.228;2022-10-31T05:44:29;10.27;;;8.07;;
26756;SDS011;23848;49.798;10.228;2022-10-31T05:46:57;9.00;;;7.97;;
26756;SDS011;23848;49.798;10.228;2022-10-31T05:49:25;8.82;;;7.50;;
26756;SDS011;23848;49.798;10.228;2022-10-31T05:51:54;8.70;;;7.53;;
26756;SDS011;23848;49.798;10.228;2022-10-31T05:54:22;8.50;;;7.15;;
26756;SDS011;23848;49.798;10.228;2022-10-31T05:56:50;8.07;;;7.25;;
26756;SDS011;23848;49.798;10.228;2022-10-31T05:59:19;8.10;;;6.78;;
26756;SDS011;23848;49.798;10.228;2022-10-31T06:01:49;8.13;;;7.30;;
26756;SDS011;23848;49.798;10.228;2022-10-31T06:04:17;10.25;;;7.65;;
26756;SDS011;23848;49.798;10.228;2022-10-31T06:06:45;8.90;;;7.20;;
26756;SDS011;23848;49.798;10.228;2022-10-31T06:09:14;9.88;;;7.07;;
26756;SDS011;23848;49.798;10.228;2022-10-31T06:11:42;9.88;;;7.25;;
26756;SDS011;23848;49.798;10.228;2022-10-31T06:14:10;10.55;;;7.97;;
26756;SDS011;23848;49.798;10.228;2022-10-31T06:16:39;10.30;;;7.75;;
26756;SDS011;23848;49.798;10.228;2022-10-31T06:19:09;10.13;;;7.63;;
26756;SDS011;23848;49.798;10.228;2022-10-31T06:21:37;10.43;;;8.05;;
26756;SDS011;23848;49.798;10.228;2022-10-31T06:24:06;11.20;;;8.18;;
26756;SDS011;23848;49.798;10.228;2022-10-31T06:26:34;11.82;;;8.38;;
26756;SDS011;23848;49.798;10.228;2022-10-31T06:29:04;9.85;;;8.02;;
26756;SDS011;23848;49.798;10.228;2022-10-31T06:31:33;11.00;;;8.32;;
26756;SDS011;23848;49.798;10.228;2022-10-31T06:34:11;13.20;;;8.80;;
26756;SDS011;23848;49.798;10.228;2022-10-31T06:36:55;10.27;;;7.95;;
26756;SDS011;23848;49.798;10.228;2022-10-31T06:39:25;10.20;;;8.25;;
26756;SDS011;23848;49.798;10.228;2022-10-31T06:41:54;11.55;;;7.88;;
26756;SDS011;23848;49.798;10.228;2022-10-31T06:44:23;11.35;;;8.20;;
26756;SDS011;23848;49.798;10.228;2022-10-31T06:46:52;12.82;;;8.13;;
26756;SDS011;23848;49.798;10.228;2022-10-31T06:49:23;11.60;;;8.75;;
26756;SDS011;23848;49.798;10.228;2022-10-31T06:51:55;13.32;;;9.88;;
26756;SDS011;23848;49.798;10.228;2022-10-31T06:54:24;12.73;;;10.10;;
26756;SDS011;23848;49.798;10.228;2022-10-31T06:56:53;15.15;;;10.35;;
26756;SDS011;23848;49.798;10.228;2022-10-31T06:59:27;13.73;;;11.27;;
26756;SDS011;23848;49.798;10.228;2022-10-31T07:01:57;10.93;;;8.57;;
26756;SDS011;23848;49.798;10.228;2022-10-31T07:04:29;11.77;;;7.88;;
26756;SDS011;23848;49.798;10.228;2022-10-31T07:06:57;10.70;;;7.88;;
26756;SDS011;23848;49.798;10.228;2022-10-31T07:09:26;9.05;;;7.50;;
26756;SDS011;23848;49.798;10.228;2022-10-31T07:11:55;9.23;;;7.55;;
26756;SDS011;23848;49.798;10.228;2022-10-31T07:14:23;9.50;;;7.82;;
26756;SDS011;23848;49.798;10.228;2022-10-31T07:16:52;10.73;;;7.93;;
26756;SDS011;23848;49.798;10.228;2022-10-31T07:19:21;9.57;;;7.43;;
26756;SDS011;23848;49.798;10.228;2022-10-31T07:21:55;9.65;;;7.88;;
26756;SDS011;23848;49.798;10.228;2022-10-31T07:24:27;14.52;;;10.60;;
26756;SDS011;23848;49.798;10.228;2022-10-31T07:26:58;10.50;;;7.95;;
26756;SDS011;23848;49.798;10.228;2022-10-31T07:29:27;11.82;;;8.63;;
26756;SDS011;23848;49.798;10.228;2022-10-31T07:31:58;11.45;;;7.57;;
26756;SDS011;23848;49.798;10.228;2022-10-31T07:34:28;8.98;;;7.78;;
26756;SDS011;23848;49.798;10.228;2022-10-31T07:37:00;11.00;;;8.23;;
26756;SDS011;23848;49.798;10.228;2022-10-31T07:39:29;9.50;;;8.00;;
26756;SDS011;23848;49.798;10.228;2022-10-31T07:41:58;13.82;;;7.28;;
26756;SDS011;23848;49.798;10.228;2022-10-31T07:44:27;10.73;;;9.05;;
26756;SDS011;23848;49.798;10.228;2022-10-31T07:47:02;13.68;;;9.45;;
26756;SDS011;23848;49.798;10.228;2022-10-31T07:49:35;10.23;;;7.50;;
26756;SDS011;23848;49.798;10.228;2022-10-31T07:52:18;11.45;;;8.30;;
26756;SDS011;23848;49.798;10.228;2022-10-31T07:54:50;9.13;;;7.78;;
26756;SDS011;23848;49.798;10.228;2022-10-31T07:57:21;19.20;;;10.32;;
26756;SDS011;23848;49.798;10.228;2022-10-31T07:59:55;12.60;;;10.27;;
26756;SDS011;23848;49.798;10.228;2022-10-31T08:02:24;9.38;;;7.88;;
26756;SDS011;23848;49.798;10.228;2022-10-31T08:04:53;10.63;;;6.40;;
26756;SDS011;23848;49.798;10.228;2022-10-31T08:07:35;11.73;;;6.82;;
26756;SDS011;23848;49.798;10.228;2022-10-31T08:10:11;9.48;;;6.80;;
26756;SDS011;23848;49.798;10.228;2022-10-31T08:12:40;9.55;;;6.70;;
26756;SDS011;23848;49.798;10.228;2022-10-31T08:15:13;9.60;;;7.05;;
26756;SDS011;23848;49.798;10.228;2022-10-31T08:17:44;7.95;;;6.95;;
26756;SDS011;23848;49.798;10.228;2022-10-31T08:20:23;10.57;;;7.85;;
26756;SDS011;23848;49.798;10.228;2022-10-31T08:23:03;9.00;;;7.18;;
26756;SDS011;23848;49.798;10.228;2022-10-31T08:25:38;8.60;;;6.90;;
26756;SDS011;23848;49.798;10.228;2022-10-31T08:28:10;11.25;;;8.63;;
26756;SDS011;23848;49.798;10.228;2022-10-31T08:30:40;9.13;;;7.50;;
26756;SDS011;23848;49.798;10.228;2022-10-31T08:33:13;9.23;;;7.40;;
26756;SDS011;23848;49.798;10.228;2022-10-31T08:35:45;9.02;;;7.57;;
26756;SDS011;23848;49.798;10.228;2022-10-31T08:38:17;10.07;;;7.82;;
26756;SDS011;23848;49.798;10.228;2022-10-31T08:40:49;9.27;;;8.07;;
26756;SDS011;23848;49.798;10.228;2022-10-31T08:43:23;10.82;;;8.45;;
26756;SDS011;23848;49.798;10.228;2022-10-31T08:48:25;9.57;;;7.15;;
26756;SDS011;23848;49.798;10.228;2022-10-31T08:50:55;10.68;;;8.82;;
26756;SDS011;23848;49.798;10.228;2022-10-31T08:53:33;9.52;;;7.78;;
26756;SDS011;23848;49.798;10.228;2022-10-31T08:56:02;10.35;;;7.60;;
26756;SDS011;23848;49.798;10.228;2022-10-31T08:58:39;8.70;;;7.25;;
26756;SDS011;23848;49.798;10.228;2022-10-31T09:01:09;9.38;;;7.47;;
26756;SDS011;23848;49.798;10.228;2022-10-31T09:03:38;9.48;;;7.43;;
26756;SDS011;23848;49.798;10.228;2022-10-31T09:06:11;9.40;;;7.67;;
26756;SDS011;23848;49.798;10.228;2022-10-31T09:08:52;9.43;;;7.95;;
26756;SDS011;23848;49.798;10.228;2022-10-31T09:11:27;10.05;;;7.93;;
26756;SDS011;23848;49.798;10.228;2022-10-31T09:13:59;9.10;;;7.82;;
26756;SDS011;23848;49.798;10.228;2022-10-31T09:16:30;8.82;;;7.43;;
26756;SDS011;23848;49.798;10.228;2022-10-31T09:19:01;9.88;;;7.88;;
26756;SDS011;23848;49.798;10.228;2022-10-31T09:21:42;9.55;;;8.05;;
26756;SDS011;23848;49.798;10.228;2022-10-31T09:55:59;10.98;;;8.20;;
26756;SDS011;23848;49.798;10.228;2022-10-31T09:58:48;10.65;;;8.73;;
26756;SDS011;23848;49.798;10.228;2022-10-31T10:01:32;10.13;;;8.25;;
26756;SDS011;23848;49.798;10.228;2022-10-31T10:12:09;11.75;;;9.05;;
26756;SDS011;23848;49.798;10.228;2022-10-31T10:15:05;9.75;;;8.23;;
26756;SDS011;23848;49.798;10.228;2022-10-31T10:17:52;10.52;;;8.70;;
26756;SDS011;23848;49.798;10.228;2022-10-31T10:23:46;9.95;;;8.32;;
26756;SDS011;23848;49.798;10.228;2022-10-31T10:26:34;9.90;;;7.85;;
26756;SDS011;23848;49.798;10.228;2022-10-31T10:31:49;10.95;;;9.13;;
26756;SDS011;23848;49.798;10.228;2022-10-31T10:34:28;9.73;;;7.97;;
26756;SDS011;23848;49.798;10.228;2022-10-31T10:42:44;9.90;;;8.90;;
26756;SDS011;23848;49.798;10.228;2022-10-31T10:48:54;10.13;;;8.95;;
26756;SDS011;23848;49.798;10.228;2022-10-31T10:51:44;15.15;;;10.25;;
26756;SDS011;23848;49.798;10.228;2022-10-31T11:13:16;9.57;;;8.32;;
26756;SDS011;23848;49.798;10.228;2022-10-31T11:16:09;11.07;;;8.65;;
26756;SDS011;23848;49.798;10.228;2022-10-31T11:18:52;11.18;;;9.10;;
26756;SDS011;23848;49.798;10.228;2022-10-31T11:24:14;12.10;;;9.48;;
26756;SDS011;23848;49.798;10.228;2022-10-31T11:27:11;11.80;;;9.07;;
26756;SDS011;23848;49.798;10.228;2022-10-31T11:30:11;12.00;;;10.10;;
26756;SDS011;23848;49.798;10.228;2022-10-31T12:26:33;13.98;;;10.75;;
26756;SDS011;23848;49.798;10.228;2022-10-31T12:47:57;23.92;;;17.73;;
26756;SDS011;23848;49.798;10.228;2022-10-31T12:56:20;14.60;;;12.13;;
26756;SDS011;23848;49.798;10.228;2022-10-31T12:59:20;15.77;;;12.45;;
26756;SDS011;23848;49.798;10.228;2022-10-31T13:05:00;17.35;;;13.18;;
26756;SDS011;23848;49.798;10.228;2022-10-31T13:07:55;16.85;;;12.13;;
26756;SDS011;23848;49.798;10.228;2022-10-31T13:10:47;14.65;;;11.88;;
26756;SDS011;23848;49.798;10.228;2022-10-31T13:13:35;15.95;;;12.65;;
26756;SDS011;23848;49.798;10.228;2022-10-31T13:21:30;16.25;;;12.57;;
26756;SDS011;23848;49.798;10.228;2022-10-31T13:24:03;16.98;;;12.80;;
26756;SDS011;23848;49.798;10.228;2022-10-31T13:26:40;15.95;;;12.93;;
26756;SDS011;23848;49.798;10.228;2022-10-31T13:29:15;14.43;;;11.75;;
26756;SDS011;23848;49.798;10.228;2022-10-31T13:31:52;17.30;;;13.30;;
26756;SDS011;23848;49.798;10.228;2022-10-31T13:34:29;16.97;;;13.43;;
26756;SDS011;23848;49.798;10.228;2022-10-31T13:40:07;17.33;;;13.82;;
26756;SDS011;23848;49.798;10.228;2022-10-31T13:42:51;20.17;;;17.98;;
26756;SDS011;23848;49.798;10.228;2022-10-31T13:45:27;16.27;;;12.57;;
26756;SDS011;23848;49.798;10.228;2022-10-31T13:48:17;16.80;;;13.35;;
26756;SDS011;23848;49.798;10.228;2022-10-31T13:51:03;19.20;;;15.45;;
26756;SDS011;23848;49.798;10.228;2022-10-31T14:51:09;20.17;;;14.15;;
26756;SDS011;23848;49.798;10.228;2022-10-31T14:54:00;19.55;;;13.70;;
26756;SDS011;23848;49.798;10.228;2022-10-31T14:57:04;17.05;;;13.70;;
26756;SDS011;23848;49.798;10.228;2022-10-31T15:00:25;19.38;;;13.35;;
26756;SDS011;23848;49.798;10.228;2022-10-31T15:16:21;16.10;;;12.93;;
26756;SDS011;23848;49.798;10.228;2022-10-31T15:21:42;21.23;;;14.63;;
26756;SDS011;23848;49.798;10.228;2022-10-31T15:24:19;18.77;;;14.32;;
26756;SDS011;23848;49.798;10.228;2022-10-31T15:26:56;22.80;;;16.60;;
26756;SDS011;23848;49.798;10.228;2022-10-31T15:29:31;25.00;;;17.08;;
26756;SDS011;23848;49.798;10.228;2022-10-31T15:32:20;23.95;;;15.93;;
26756;SDS011;23848;49.798;10.228;2022-10-31T15:34:55;26.35;;;16.15;;
26756;SDS011;23848;49.798;10.228;2022-10-31T15:37:43;23.10;;;15.80;;
26756;SDS011;23848;49.798;10.228;2022-10-31T15:40:30;27.83;;;18.95;;
26756;SDS011;23848;49.798;10.228;2022-10-31T15:43:05;27.52;;;18.63;;
26756;SDS011;23848;49.798;10.228;2022-10-31T15:45:42;28.52;;;20.05;;
26756;SDS011;23848;49.798;10.228;2022-10-31T15:51:09;28.35;;;19.60;;
26756;SDS011;23848;49.798;10.228;2022-10-31T15:53:41;26.15;;;18.30;;
26756;SDS011;23848;49.798;10.228;2022-10-31T15:56:19;25.02;;;17.05;;
26756;SDS011;23848;49.798;10.228;2022-10-31T15:59:02;28.25;;;17.95;;
26756;SDS011;23848;49.798;10.228;2022-10-31T16:01:58;28.90;;;17.63;;
26756;SDS011;23848;49.798;10.228;2022-10-31T16:04:32;24.30;;;16.70;;
26756;SDS011;23848;49.798;10.228;2022-10-31T16:07:14;25.17;;;16.23;;
26756;SDS011;23848;49.798;10.228;2022-10-31T16:09:49;23.20;;;17.37;;
26756;SDS011;23848;49.798;10.228;2022-10-31T16:12:18;27.33;;;17.27;;
26756;SDS011;23848;49.798;10.228;2022-10-31T16:14:48;27.85;;;18.90;;
26756;SDS011;23848;49.798;10.228;2022-10-31T16:17:18;26.67;;;19.05;;
26756;SDS011;23848;49.798;10.228;2022-10-31T16:19:50;27.52;;;19.13;;
26756;SDS011;23848;49.798;10.228;2022-10-31T16:22:22;28.45;;;19.08;;
26756;SDS011;23848;49.798;10.228;2022-10-31T16:24:51;38.25;;;26.90;;
26756;SDS011;23848;49.798;10.228;2022-10-31T16:27:22;47.40;;;29.27;;
26756;SDS011;23848;49.798;10.228;2022-10-31T16:29:55;41.13;;;27.67;;
26756;SDS011;23848;49.798;10.228;2022-10-31T16:32:28;29.35;;;21.13;;
26756;SDS011;23848;49.798;10.228;2022-10-31T16:35:01;30.30;;;20.75;;
26756;SDS011;23848;49.798;10.228;2022-10-31T16:37:31;27.02;;;19.60;;
26756;SDS011;23848;49.798;10.228;2022-10-31T16:40:00;24.85;;;17.92;;
26756;SDS011;23848;49.798;10.228;2022-10-31T16:42:29;29.75;;;21.42;;
26756;SDS011;23848;49.798;10.228;2022-10-31T16:44:58;29.08;;;20.92;;
26756;SDS011;23848;49.798;10.228;2022-10-31T16:47:27;24.33;;;16.98;;
26756;SDS011;23848;49.798;10.228;2022-10-31T16:49:55;24.10;;;16.33;;
26756;SDS011;23848;49.798;10.228;2022-10-31T16:52:26;20.65;;;15.00;;
26756;SDS011;23848;49.798;10.228;2022-10-31T16:55:14;20.50;;;15.43;;
26756;SDS011;23848;49.798;10.228;2022-10-31T16:57:45;20.60;;;14.30;;
26756;SDS011;23848;49.798;10.228;2022-10-31T17:00:14;17.48;;;14.10;;
26756;SDS011;23848;49.798;10.228;2022-10-31T17:02:43;18.95;;;14.13;;
26756;SDS011;23848;49.798;10.228;2022-10-31T17:05:12;19.27;;;14.05;;
26756;SDS011;23848;49.798;10.228;2022-10-31T17:07:41;19.38;;;14.10;;
26756;SDS011;23848;49.798;10.228;2022-10-31T17:10:10;21.08;;;14.38;;
26756;SDS011;23848;49.798;10.228;2022-10-31T17:12:41;19.25;;;13.73;;
26756;SDS011;23848;49.798;10.228;2022-10-31T17:15:14;21.40;;;14.95;;
26756;SDS011;23848;49.798;10.228;2022-10-31T17:17:43;22.25;;;13.93;;
26756;SDS011;23848;49.798;10.228;2022-10-31T17:20:16;16.05;;;12.32;;
26756;SDS011;23848;49.798;10.228;2022-10-31T17:22:45;24.08;;;17.25;;
26756;SDS011;23848;49.798;10.228;2022-10-31T17:25:15;21.38;;;15.07;;
26756;SDS011;23848;49.798;10.228;2022-10-31T17:27:45;20.27;;;14.52;;
26756;SDS011;23848;49.798;10.228;2022-10-31T17:30:14;17.95;;;13.48;;
26756;SDS011;23848;49.798;10.228;2022-10-31T17:32:44;17.15;;;12.52;;
26756;SDS011;23848;49.798;10.228;2022-10-31T17:35:15;16.55;;;11.82;;
26756;SDS011;23848;49.798;10.228;2022-10-31T17:37:58;16.10;;;12.27;;
26756;SDS011;23848;49.798;10.228;2022-10-31T17:40:27;14.48;;;11.60;;
26756;SDS011;23848;49.798;10.228;2022-10-31T17:42:57;15.20;;;11.48;;
26756;SDS011;23848;49.798;10.228;2022-10-31T17:45:26;14.80;;;10.95;;
26756;SDS011;23848;49.798;10.228;2022-10-31T17:47:55;14.20;;;10.82;;
26756;SDS011;23848;49.798;10.228;2022-10-31T17:50:24;18.38;;;13.40;;
26756;SDS011;23848;49.798;10.228;2022-10-31T17:52:53;16.05;;;12.35;;
26756;SDS011;23848;49.798;10.228;2022-10-31T17:55:21;15.20;;;12.55;;
26756;SDS011;23848;49.798;10.228;2022-10-31T17:57:49;14.70;;;11.85;;
26756;SDS011;23848;49.798;10.228;2022-10-31T18:00:19;13.35;;;10.77;;
26756;SDS011;23848;49.798;10.228;2022-10-31T18:02:50;14.85;;;11.80;;
26756;SDS011;23848;49.798;10.228;2022-10-31T18:05:18;15.10;;;11.15;;
26756;SDS011;23848;49.798;10.228;2022-10-31T18:07:48;14.40;;;10.77;;
26756;SDS011;23848;49.798;10.228;2022-10-31T18:10:17;15.27;;;10.52;;
26756;SDS011;23848;49.798;10.228;2022-10-31T18:12:45;13.65;;;10.98;;
26756;SDS011;23848;49.798;10.228;2022-10-31T18:15:14;13.18;;;9.95;;
26756;SDS011;23848;49.798;10.228;2022-10-31T18:17:44;13.88;;;9.85;;
26756;SDS011;23848;49.798;10.228;2022-10-31T18:20:13;12.00;;;9.63;;
26756;SDS011;23848;49.798;10.228;2022-10-31T18:22:51;14.30;;;9.65;;
26756;SDS011;23848;49.798;10.228;2022-10-31T18:28:58;15.05;;;11.75;;
26756;SDS011;23848;49.798;10.228;2022-10-31T18:31:32;13.40;;;10.38;;
26756;SDS011;23848;49.798;10.228;2022-10-31T18:34:06;15.65;;;11.70;;
26756;SDS011;23848;49.798;10.228;2022-10-31T18:36:39;14.15;;;11.55;;
26756;SDS011;23848;49.798;10.228;2022-10-31T18:39:11;14.52;;;11.82;;
26756;SDS011;23848;49.798;10.228;2022-10-31T18:41:45;18.27;;;13.03;;
26756;SDS011;23848;49.798;10.228;2022-10-31T18:44:18;17.13;;;11.93;;
26756;SDS011;23848;49.798;10.228;2022-10-31T18:47:17;17.25;;;13.10;;
26756;SDS011;23848;49.798;10.228;2022-10-31T18:49:54;19.13;;;12.85;;
26756;SDS011;23848;49.798;10.228;2022-10-31T18:52:22;17.55;;;12.43;;
26756;SDS011;23848;49.798;10.228;2022-10-31T18:55:03;14.98;;;11.98;;
26756;SDS011;23848;49.798;10.228;2022-10-31T18:57:35;16.05;;;12.80;;
26756;SDS011;23848;49.798;10.228;2022-10-31T19:00:13;15.95;;;11.82;;
26756;SDS011;23848;49.798;10.228;2022-10-31T19:02:45;16.25;;;12.00;;
26756;SDS011;23848;49.798;10.228;2022-10-31T19:05:16;15.98;;;11.85;;
26756;SDS011;23848;49.798;10.228;2022-10-31T19:07:48;14.93;;;12.18;;
26756;SDS011;23848;49.798;10.228;2022-10-31T19:10:17;15.70;;;12.38;;